createdAt,value
2022-10-26T06:33:01.286Z,2.47
2022-10-26T06:35:40.962Z,2.30
2022-10-26T06:38:17.507Z,2.30
2022-10-26T06:40:53.683Z,2.22
2022-10-26T06:43:32.005Z,2.20
2022-10-26T06:46:17.022Z,2.33
2022-10-26T06:49:15.430Z,2.20
2022-10-26T06:51:57.874Z,2.58
2022-10-26T06:54:47.309Z,2.30
2022-10-26T06:57:16.627Z,2.35
2022-10-26T07:00:00.705Z,2.30
2022-10-26T07:02:41.619Z,2.53
2022-10-26T07:05:13.024Z,2.42
2022-10-26T07:07:51.023Z,2.30
2022-10-26T07:10:21.267Z,2.60
2022-10-26T07:12:57.480Z,2.53
2022-10-26T07:15:26.252Z,2.20
2022-10-26T07:17:55.894Z,2.38
2022-10-26T07:20:26.167Z,2.47
2022-10-26T07:22:57.907Z,2.20
2022-10-26T07:25:30.432Z,2.47
2022-10-26T07:27:59.453Z,2.50
2022-10-26T07:30:30.683Z,2.28
2022-10-26T07:33:07.427Z,2.55
2022-10-26T07:35:38.631Z,2.50
2022-10-26T07:38:16.426Z,2.10
2022-10-26T07:40:46.902Z,2.45
2022-10-26T07:43:22.250Z,2.45
2022-10-26T07:45:55.479Z,2.55
2022-10-26T07:48:28.796Z,2.28
2022-10-26T07:50:56.453Z,2.30
2022-10-26T07:53:27.948Z,2.78
2022-10-26T07:56:00.173Z,2.50
2022-10-26T07:58:28.327Z,2.65
2022-10-26T08:01:08.438Z,3.70
2022-10-26T08:03:44.259Z,3.95
2022-10-26T08:06:16.728Z,4.32
2022-10-26T08:08:47.751Z,3.43
2022-10-26T08:11:21.750Z,3.30
2022-10-26T08:13:53.624Z,2.60
2022-10-26T08:16:31.403Z,2.90
2022-10-26T08:19:04.817Z,2.95
2022-10-26T08:21:39.463Z,3.03
2022-10-26T08:24:13.378Z,2.80
2022-10-26T08:26:44.681Z,3.03
2022-10-26T08:29:17.398Z,3.03
2022-10-26T08:31:50.871Z,2.65
2022-10-26T08:34:29.715Z,3.08
2022-10-26T08:37:06.276Z,3.05
2022-10-26T08:39:41.633Z,2.72
2022-10-26T08:42:20.358Z,3.00
2022-10-26T08:44:58.516Z,2.58
2022-10-26T08:47:34.460Z,2.80
2022-10-26T08:50:15.884Z,2.78
2022-10-26T08:52:52.483Z,2.70
2022-10-26T08:55:28.662Z,2.83
2022-10-26T08:58:12.011Z,2.75
2022-10-26T09:00:41.559Z,2.47
2022-10-26T09:03:18.937Z,2.75
2022-10-26T09:06:13.197Z,2.42
2022-10-26T09:08:59.067Z,2.50
2022-10-26T09:11:53.827Z,2.85
2022-10-26T09:14:36.083Z,2.80
2022-10-26T09:17:23.822Z,2.97
2022-10-26T09:20:26.854Z,2.70
2022-10-26T09:23:34.751Z,2.70
2022-10-26T09:26:13.746Z,2.50
2022-10-26T09:28:46.863Z,3.00
2022-10-26T09:31:17.391Z,2.40
2022-10-26T09:33:47.456Z,3.10
2022-10-26T09:36:21.500Z,2.97
2022-10-26T09:39:05.525Z,2.92
2022-10-26T09:41:38.377Z,2.33
2022-10-26T09:44:17.999Z,2.95
2022-10-26T09:47:36.931Z,2.85
2022-10-26T09:50:34.500Z,2.88
2022-10-26T09:53:05.457Z,2.72
2022-10-26T09:55:35.897Z,2.75
2022-10-26T09:58:07.440Z,3.10
2022-10-26T10:00:39.350Z,3.05
2022-10-26T10:03:20.471Z,2.78
2022-10-26T10:05:53.213Z,3.03
2022-10-26T10:08:27.729Z,2.70
2022-10-26T10:11:11.877Z,2.88
2022-10-26T10:13:47.120Z,2.75
2022-10-26T10:16:25.056Z,2.55
2022-10-26T10:19:00.883Z,2.30
2022-10-26T10:21:43.934Z,2.80
2022-10-26T10:24:33.527Z,2.50
2022-10-26T10:27:13.374Z,3.40
2022-10-26T10:29:50.098Z,2.92
2022-10-26T10:32:27.862Z,2.70
2022-10-26T10:34:59.818Z,2.83
2022-10-26T10:37:47.425Z,2.88
2022-10-26T10:40:27.873Z,2.90
2022-10-26T10:43:14.996Z,2.97
2022-10-26T10:46:02.690Z,2.85
2022-10-26T10:48:35.840Z,3.05
2022-10-26T10:51:18.664Z,3.00
2022-10-26T10:53:49.303Z,3.08
2022-10-26T10:56:34.962Z,2.88
2022-10-26T10:59:17.563Z,3.30
2022-10-26T11:01:54.378Z,3.30
2022-10-26T11:04:34.151Z,3.05
2022-10-26T11:07:08.012Z,3.40
2022-10-26T11:09:41.962Z,3.08
2022-10-26T11:12:29.705Z,3.22
2022-10-26T11:15:06.201Z,3.60
2022-10-26T11:18:05.221Z,3.40
2022-10-26T11:20:36.396Z,3.45
2022-10-26T11:23:13.128Z,3.65
2022-10-26T11:25:50.331Z,3.42
2022-10-26T11:28:59.328Z,3.35
2022-10-26T11:31:35.946Z,3.10
2022-10-26T11:34:17.520Z,4.00
2022-10-26T11:36:53.020Z,3.60
2022-10-26T11:39:41.214Z,3.78
2022-10-26T11:42:21.216Z,3.55
2022-10-26T11:45:04.635Z,3.53
2022-10-26T11:47:48.796Z,3.17
2022-10-26T11:50:25.894Z,3.63
2022-10-26T11:52:59.900Z,3.03
2022-10-26T11:55:34.056Z,3.30
2022-10-26T11:58:03.186Z,3.50
2022-10-26T12:00:33.182Z,3.13
2022-10-26T12:03:23.923Z,3.40
2022-10-26T12:05:52.187Z,3.40
2022-10-26T12:08:36.893Z,3.10
2022-10-26T12:11:34.774Z,4.00
2022-10-26T12:14:20.337Z,3.33
2022-10-26T12:16:54.962Z,4.15
2022-10-26T12:19:35.825Z,4.25
2022-10-26T12:22:12.176Z,4.40
2022-10-26T12:24:50.280Z,3.92
2022-10-26T12:27:52.322Z,3.80
2022-10-26T12:30:30.053Z,3.70
2022-10-26T12:33:03.982Z,3.75
2022-10-26T12:35:39.109Z,4.15
2022-10-26T12:38:33.634Z,4.05
2022-10-26T12:41:04.477Z,3.85
2022-10-26T12:43:33.252Z,3.78
2022-10-26T12:46:13.026Z,3.70
2022-10-26T12:48:46.751Z,3.70
2022-10-26T12:51:25.718Z,3.45
2022-10-26T12:54:34.617Z,3.38
2022-10-26T12:57:10.421Z,3.88
2022-10-26T13:02:46.150Z,3.22
2022-10-26T13:05:29.627Z,3.50
2022-10-26T13:08:07.838Z,3.22
2022-10-26T13:10:38.557Z,3.35
2022-10-26T13:13:08.445Z,3.30
2022-10-26T13:15:41.702Z,3.28
2022-10-26T13:18:18.309Z,3.00
2022-10-26T13:20:52.199Z,3.03
2022-10-26T13:23:32.088Z,3.13
2022-10-26T13:26:13.185Z,2.60
2022-10-26T13:28:43.899Z,3.10
2022-10-26T13:31:20.398Z,2.90
2022-10-26T13:33:51.804Z,2.78
2022-10-26T13:36:32.289Z,2.88
2022-10-26T13:39:06.377Z,2.70
2022-10-26T13:41:39.667Z,2.55
2022-10-26T13:44:17.900Z,2.47
2022-10-26T13:46:49.410Z,2.90
2022-10-26T13:49:28.063Z,2.70
2022-10-26T13:52:01.976Z,2.80
2022-10-26T13:55:00.236Z,3.10
2022-10-26T13:57:43.865Z,2.70
2022-10-26T14:02:58.909Z,2.65
2022-10-26T14:05:32.703Z,2.60
2022-10-26T14:08:07.285Z,2.72
2022-10-26T14:10:43.029Z,2.58
2022-10-26T14:13:16.823Z,2.55
2022-10-26T14:15:50.702Z,2.65
2022-10-26T14:18:35.442Z,2.58
2022-10-26T14:21:17.051Z,3.08
2022-10-26T14:23:56.546Z,2.58
2022-10-26T14:26:39.470Z,2.60
2022-10-26T14:29:22.122Z,2.60
2022-10-26T14:31:58.155Z,2.95
2022-10-26T14:34:33.546Z,2.58
2022-10-26T14:37:05.075Z,2.60
2022-10-26T14:39:41.071Z,2.67
2022-10-26T14:42:28.756Z,2.85
2022-10-26T14:45:02.797Z,2.90
2022-10-26T14:47:33.578Z,2.88
2022-10-26T14:50:09.995Z,3.05
2022-10-26T14:52:41.121Z,3.17
2022-10-26T14:55:14.952Z,3.30
2022-10-26T14:57:48.699Z,3.65
2022-10-26T15:00:25.648Z,3.60
2022-10-26T15:02:58.335Z,3.88
2022-10-26T15:05:35.764Z,4.32
2022-10-26T15:08:38.919Z,4.70
2022-10-26T15:13:53.966Z,5.30
2022-10-26T15:16:28.446Z,4.70
2022-10-26T15:19:24.571Z,3.95
2022-10-26T15:21:53.878Z,4.35
2022-10-26T15:24:28.051Z,4.07
2022-10-26T15:26:56.646Z,4.65
2022-10-26T15:29:35.190Z,5.68
2022-10-26T15:32:37.637Z,5.10
2022-10-26T15:35:11.406Z,5.72
2022-10-26T15:37:40.433Z,5.07
2022-10-26T15:40:14.441Z,5.97
2022-10-26T15:42:45.526Z,4.30
2022-10-26T15:45:29.523Z,4.00
2022-10-26T15:48:02.416Z,4.72
2022-10-26T15:50:30.910Z,4.53
2022-10-26T15:53:15.323Z,4.40
2022-10-26T15:55:46.980Z,4.78
2022-10-26T15:58:16.422Z,4.65
2022-10-26T16:00:48.913Z,4.50
2022-10-26T16:03:25.236Z,5.27
2022-10-26T16:06:01.521Z,5.20
2022-10-26T16:08:32.672Z,4.63
2022-10-26T16:11:01.119Z,5.40
2022-10-26T16:13:30.942Z,5.22
2022-10-26T16:15:59.293Z,5.50
2022-10-26T16:18:28.176Z,5.03
2022-10-26T16:20:56.973Z,6.07
2022-10-26T16:23:25.399Z,5.10
2022-10-26T16:25:53.663Z,5.25
2022-10-26T16:28:22.697Z,5.40
2022-10-26T16:30:50.546Z,4.97
2022-10-26T16:33:18.701Z,5.75
2022-10-26T16:35:56.120Z,5.68
2022-10-26T16:38:31.754Z,4.85
2022-10-26T16:41:11.614Z,5.25
2022-10-26T16:43:42.006Z,5.78
2022-10-26T16:46:19.955Z,5.15
2022-10-26T16:48:49.583Z,5.63
2022-10-26T16:51:23.176Z,5.75
2022-10-26T16:53:55.220Z,5.80
2022-10-26T16:56:25.467Z,5.95
2022-10-26T16:58:57.419Z,6.03
2022-10-26T17:01:25.974Z,6.20
2022-10-26T17:03:54.253Z,6.32
2022-10-26T17:06:22.871Z,6.72
2022-10-26T17:08:50.866Z,5.10
2022-10-26T17:11:21.142Z,5.05
2022-10-26T17:13:54.123Z,4.97
2022-10-26T17:16:24.276Z,4.38
2022-10-26T17:18:53.431Z,4.03
2022-10-26T17:21:30.031Z,4.47
2022-10-26T17:24:01.754Z,4.72
2022-10-26T17:26:29.875Z,4.00
2022-10-26T17:28:58.389Z,4.10
2022-10-26T17:31:26.095Z,3.85
2022-10-26T17:33:53.997Z,3.80
2022-10-26T17:36:22.770Z,3.55
2022-10-26T17:38:52.656Z,3.53
2022-10-26T17:41:22.316Z,3.80
2022-10-26T17:43:50.653Z,4.53
2022-10-26T17:46:24.470Z,3.90
2022-10-26T17:48:59.611Z,4.20
2022-10-26T17:51:29.235Z,3.70
2022-10-26T17:53:59.231Z,4.00
2022-10-26T17:56:29.234Z,3.50
2022-10-26T17:58:59.071Z,4.05
2022-10-26T18:01:27.888Z,3.80
2022-10-26T18:03:58.352Z,4.07
2022-10-26T18:06:27.310Z,4.00
2022-10-26T18:08:59.240Z,3.50
2022-10-26T18:11:28.549Z,4.28
2022-10-26T18:13:57.196Z,3.20
2022-10-26T18:16:26.732Z,3.50
2022-10-26T18:19:00.529Z,4.22
2022-10-26T18:21:31.112Z,3.67
2022-10-26T18:23:59.178Z,3.42
2022-10-26T18:26:30.979Z,3.83
2022-10-26T18:29:00.130Z,3.72
2022-10-26T18:31:29.305Z,3.10
2022-10-26T18:33:58.454Z,3.92
2022-10-26T18:36:27.123Z,3.53
2022-10-26T18:38:54.766Z,3.50
2022-10-26T18:41:24.631Z,3.42
2022-10-26T18:43:55.526Z,3.67
2022-10-26T18:46:27.437Z,3.47
2022-10-26T18:48:56.156Z,3.53
2022-10-26T18:51:28.699Z,3.40
2022-10-26T18:53:57.509Z,4.07
2022-10-26T18:56:25.733Z,3.50
2022-10-26T18:58:56.361Z,3.40
2022-10-26T19:01:26.596Z,3.20
2022-10-26T19:04:02.357Z,3.20
2022-10-26T19:06:32.689Z,3.60
2022-10-26T19:09:00.801Z,3.50
2022-10-26T19:11:30.389Z,3.75
2022-10-26T19:13:58.529Z,3.25
2022-10-26T19:19:17.179Z,3.20
2022-10-26T19:21:46.724Z,3.58
2022-10-26T19:24:20.217Z,3.30
2022-10-26T19:29:17.384Z,3.97
2022-10-26T19:31:46.504Z,3.50
2022-10-26T19:34:18.325Z,3.22
2022-10-26T19:36:47.286Z,3.70
2022-10-26T19:39:16.279Z,3.28
2022-10-26T19:41:44.836Z,3.55
2022-10-26T19:44:14.333Z,3.33
2022-10-26T19:46:43.727Z,3.80
2022-10-26T19:49:12.759Z,3.33
2022-10-26T19:51:40.490Z,3.47
2022-10-26T19:54:09.020Z,3.10
2022-10-26T19:56:37.564Z,3.40
2022-10-26T19:59:06.238Z,3.30
2022-10-26T20:01:34.399Z,3.22
2022-10-26T20:04:02.783Z,3.60
2022-10-26T20:06:31.045Z,3.90
2022-10-26T20:08:59.188Z,3.42
2022-10-26T20:11:26.790Z,3.80
2022-10-26T20:13:56.321Z,3.85
2022-10-26T20:16:24.581Z,3.53
2022-10-26T20:18:52.331Z,3.28
2022-10-26T20:21:19.810Z,3.60
2022-10-26T20:23:47.459Z,3.47
2022-10-26T20:26:18.635Z,3.75
2022-10-26T20:28:48.951Z,3.40
2022-10-26T20:31:16.473Z,3.70
2022-10-26T20:33:51.985Z,3.50
2022-10-26T20:36:19.948Z,3.40
2022-10-26T20:38:47.926Z,3.72
2022-10-26T20:41:15.589Z,3.33
2022-10-26T20:43:43.552Z,3.38
2022-10-26T20:46:31.377Z,3.70
2022-10-26T20:48:59.227Z,3.30
2022-10-26T20:52:19.023Z,3.88
2022-10-26T20:54:59.804Z,3.33
2022-10-26T20:57:31.745Z,3.60
2022-10-26T21:00:09.124Z,3.47
2022-10-26T21:02:36.854Z,3.30
2022-10-26T21:05:04.892Z,3.70
2022-10-26T21:07:32.468Z,3.53
2022-10-26T21:09:59.971Z,4.00
2022-10-26T21:12:27.437Z,4.10
2022-10-26T21:14:54.828Z,3.83
2022-10-26T21:17:22.732Z,3.35
2022-10-26T21:19:50.069Z,3.42
2022-10-26T21:22:17.508Z,3.10
2022-10-26T21:24:49.704Z,3.50
2022-10-26T21:27:19.114Z,3.83
2022-10-26T21:29:46.652Z,3.75
2022-10-26T21:32:14.095Z,3.67
2022-10-26T21:34:41.581Z,3.50
2022-10-26T21:37:09.046Z,3.67
2022-10-26T21:39:36.458Z,3.83
2022-10-26T21:42:03.996Z,3.60
2022-10-26T21:44:46.613Z,3.67
2022-10-26T21:47:13.940Z,3.50
2022-10-26T21:52:14.066Z,3.20
2022-10-26T21:54:41.483Z,3.50
2022-10-26T21:57:08.948Z,3.60
2022-10-26T21:59:36.827Z,3.20
2022-10-26T22:02:04.510Z,3.75
2022-10-26T22:04:32.895Z,3.58
2022-10-26T22:07:00.503Z,3.20
2022-10-26T22:09:27.742Z,4.03
2022-10-26T22:11:57.651Z,3.55
2022-10-26T22:14:25.239Z,3.50
2022-10-26T22:16:52.708Z,3.60
2022-10-26T22:19:20.183Z,3.88
2022-10-26T22:21:47.782Z,3.58
2022-10-26T22:24:15.358Z,3.95
2022-10-26T22:26:42.724Z,3.60
2022-10-26T22:29:10.233Z,3.78
2022-10-26T22:31:43.028Z,3.83
2022-10-26T22:34:16.018Z,3.55
2022-10-26T22:36:43.977Z,3.35
2022-10-26T22:39:11.442Z,3.58
2022-10-26T22:41:38.970Z,3.40
2022-10-26T22:44:06.349Z,3.95
2022-10-26T22:46:33.958Z,3.90
2022-10-26T22:49:02.422Z,3.80
2022-10-26T22:51:34.397Z,3.78
2022-10-26T22:54:03.319Z,3.85
2022-10-26T22:56:33.237Z,3.67
2022-10-26T22:59:00.555Z,3.38
2022-10-26T23:01:33.936Z,3.95
2022-10-26T23:04:01.418Z,3.55
2022-10-26T23:06:30.812Z,3.85
2022-10-26T23:08:58.394Z,3.55
2022-10-26T23:11:27.982Z,3.88
2022-10-26T23:14:02.526Z,3.83
2022-10-26T23:16:30.942Z,3.55
2022-10-26T23:18:59.693Z,3.70
2022-10-26T23:21:29.032Z,3.80
2022-10-26T23:23:57.219Z,3.47
2022-10-26T23:26:24.918Z,3.85
2022-10-26T23:28:52.318Z,3.50
2022-10-26T23:31:22.338Z,3.65
2022-10-26T23:33:51.313Z,3.72
2022-10-26T23:36:19.703Z,3.70
2022-10-26T23:38:47.730Z,3.90
2022-10-26T23:41:17.330Z,3.85
2022-10-26T23:43:44.938Z,3.50
2022-10-26T23:46:15.452Z,3.97
2022-10-26T23:48:42.927Z,3.65
2022-10-26T23:51:10.392Z,3.80
2022-10-26T23:53:37.844Z,3.63
2022-10-26T23:56:05.614Z,3.80
2022-10-26T23:58:33.222Z,3.78
